Time;durP1;ratioP1;P1;durP2;ratioP2;P2;SDS_P1;SDS_P2;PMS_P1;PMS_P2;Temp;Humidity;BMP_temperature;BMP_pressure;BME280_temperature;BME280_humidity;BME280_pressure;Samples;Min_cycle;Max_cycle;Signal;HPM_P1;HPM_P2
2022/07/04 00:00:18;;;;;;;4.63;1.58;;;20.60;99.90;;;20.81;90.60;100420.03;4953295;28;20208;-68
2022/07/04 00:02:47;;;;;;;3.05;1.20;;;20.50;99.90;;;20.69;91.47;100411.41;4949222;28;20260;-66
2022/07/04 00:05:17;;;;;;;3.10;1.10;;;20.50;99.90;;;20.72;90.52;100419.38;5001335;28;20213;-66
2022/07/04 00:07:48;;;;;;;3.63;1.10;;;20.40;99.90;;;20.57;91.00;100410.91;4986677;28;20209;-66
2022/07/04 00:10:22;;;;;;;3.75;1.38;;;20.40;99.90;;;20.57;92.51;100430.59;4953798;28;20652;-68
2022/07/04 00:12:50;;;;;;;3.33;1.20;;;20.40;99.90;;;20.44;92.70;100423.88;4981612;28;20689;-66
2022/07/04 00:15:18;;;;;;;3.25;1.15;;;20.20;99.90;;;20.46;93.55;100443.50;4956413;28;20213;-68
2022/07/04 00:17:46;;;;;;;7.95;2.70;;;20.20;99.90;;;20.44;92.21;100438.19;4969744;28;20207;-67
2022/07/04 00:20:14;;;;;;;4.90;1.60;;;20.30;99.90;;;20.44;92.03;100424.75;4956146;28;20565;-66
2022/07/04 00:22:43;;;;;;;2.55;0.90;;;20.20;99.90;;;20.57;91.31;100443.16;4971503;28;20216;-66
2022/07/04 00:25:11;;;;;;;2.30;0.98;;;20.20;99.90;;;20.43;91.36;100433.72;4953401;28;20214;-67
2022/07/04 00:27:38;;;;;;;4.28;1.27;;;20.10;99.90;;;20.44;90.47;100421.19;4938899;28;20227;-66
2022/07/04 00:30:08;;;;;;;6.10;1.45;;;20.20;99.90;;;20.40;89.47;100408.78;4959780;28;20204;-66
2022/07/04 00:32:35;;;;;;;6.07;1.55;;;20.00;99.90;;;20.32;88.83;100389.31;4958698;28;20223;-66
2022/07/04 00:35:04;;;;;;;12.10;2.58;;;;;;;20.36;89.15;100393.66;4959719;28;20201;-69
2022/07/04 00:37:33;;;;;;;7.32;1.85;;;20.10;99.90;;;20.35;88.90;100398.16;4970599;28;20220;-66
2022/07/04 00:40:01;;;;;;;6.18;1.67;;;;;;;20.27;88.45;100386.75;4974370;28;20208;-67
2022/07/04 00:42:29;;;;;;;8.68;2.30;;;;;;;20.32;88.58;100403.63;4972875;28;20213;-66
2022/07/04 00:44:57;;;;;;;10.45;2.65;;;;;;;20.29;88.45;100398.34;4957050;28;20228;-69
2022/07/04 00:47:26;;;;;;;10.00;2.42;;;;;;;20.27;88.15;100402.88;4955694;28;20208;-66
2022/07/04 00:49:54;;;;;;;8.60;2.30;;;;;;;20.31;88.73;100412.59;4953579;28;20224;-69
2022/07/04 00:52:22;;;;;;;13.10;3.20;;;;;;;20.22;88.58;100403.94;4938150;28;20224;-67
2022/07/04 00:54:50;;;;;;;10.25;2.33;;;19.80;99.90;;;20.19;88.12;100404.94;4976394;28;20223;-67
2022/07/04 00:57:18;;;;;;;8.50;2.10;;;;;;;20.21;87.81;100405.75;4993369;28;20200;-66
2022/07/04 00:59:47;;;;;;;8.88;2.10;;;;;;;20.23;87.01;100409.28;4956993;28;20229;-67
2022/07/04 01:02:15;;;;;;;9.52;2.33;;;;;;;20.17;86.50;100400.53;4952680;28;20203;-67
2022/07/04 01:04:43;;;;;;;8.65;2.20;;;19.80;99.90;;;20.15;86.12;100387.16;4960708;28;20221;-67
2022/07/04 01:07:12;;;;;;;8.25;2.22;;;19.90;99.90;;;20.16;86.77;100404.13;4925539;28;20208;-66
2022/07/04 01:09:40;;;;;;;11.10;2.60;;;20.10;99.90;;;20.14;86.80;100404.19;4953269;28;20236;-66
2022/07/04 01:12:09;;;;;;;14.85;3.35;;;;;;;20.15;85.70;100403.25;4965845;28;20232;-67
2022/07/04 01:14:38;;;;;;;13.25;3.10;;;19.90;99.90;;;20.14;85.10;100398.81;4981197;28;20220;-68
2022/07/04 01:17:07;;;;;;;12.18;2.85;;;;;;;20.04;86.96;100408.97;4984124;28;20204;-67
2022/07/04 01:19:35;;;;;;;16.45;3.65;;;;;;;20.05;85.56;100408.03;4979966;28;20229;-67
2022/07/04 01:22:06;;;;;;;11.50;3.13;;;19.70;99.90;;;20.03;85.42;100398.25;4984087;28;20211;-67
2022/07/04 01:24:35;;;;;;;12.02;2.88;;;;;;;19.99;85.44;100400.16;4967103;28;20288;-66
2022/07/04 01:27:03;;;;;;;14.20;3.60;;;;;;;19.94;85.17;100394.06;4956209;28;20222;-67
2022/07/04 01:29:32;;;;;;;10.65;2.90;;;19.70;99.90;;;20.00;84.48;100391.19;4949577;28;20248;-66
2022/07/04 01:32:08;;;;;;;9.57;2.45;;;19.60;99.90;;;19.99;84.53;100389.41;4950476;28;20224;-66
2022/07/04 01:34:36;;;;;;;9.95;2.55;;;19.60;99.90;;;19.97;84.25;100390.41;4983743;28;20296;-66
2022/07/04 01:37:11;;;;;;;8.43;2.05;;;;;;;19.86;84.51;100379.97;4967113;28;20224;-66
2022/07/04 01:39:39;;;;;;;13.57;3.13;;;;;;;19.91;84.75;100395.94;4935480;28;20729;-69
2022/07/04 01:42:08;;;;;;;7.95;2.10;;;19.60;99.90;;;19.82;84.99;100389.06;4981501;28;20204;-67
2022/07/04 01:44:36;;;;;;;9.23;2.63;;;;;;;19.70;85.32;100384.94;4953110;28;20216;-67
2022/07/04 01:47:05;;;;;;;10.13;2.90;;;19.40;99.90;;;19.63;85.66;100380.66;4946440;28;20212;-66
2022/07/04 01:49:33;;;;;;;9.75;2.15;;;;;;;19.66;86.61;100395.78;4967868;28;20236;-66
2022/07/04 01:52:02;;;;;;;16.38;3.90;;;19.20;99.90;;;19.56;86.53;100384.44;4966167;28;20579;-67
2022/07/04 01:54:31;;;;;;;14.00;2.92;;;;;;;19.56;86.53;100399.66;4950342;28;20205;-66
2022/07/04 01:56:58;;;;;;;10.77;2.72;;;19.50;99.90;;;19.52;86.68;100400.63;4971518;28;20683;-66
2022/07/04 02:02:13;;;;;;;13.73;3.03;;;;;;;19.40;87.17;100380.38;4984027;28;20212;-66
2022/07/04 02:04:41;;;;;;;14.73;3.47;;;19.80;99.90;;;19.44;87.15;100396.34;4964299;28;20696;-65
2022/07/04 02:07:09;;;;;;;11.20;2.53;;;19.60;99.90;;;19.31;87.14;100386.88;4983512;28;20220;-65
2022/07/04 02:09:38;;;;;;;11.80;2.92;;;;;;;19.23;87.89;100398.72;4967683;28;20244;-67
2022/07/04 02:14:53;;;;;;;12.55;2.92;;;19.20;99.90;;;19.15;87.27;100388.22;4980529;28;20203;-66
2022/07/04 02:17:21;;;;;;;12.82;2.97;;;;;;;19.05;87.63;100381.34;4949907;28;20201;-69
2022/07/04 02:19:49;;;;;;;8.30;2.15;;;;;;;19.09;88.13;100399.09;4997844;28;20228;-66
2022/07/04 02:22:17;;;;;;;17.58;4.20;;;18.90;99.90;;;19.04;88.00;100401.88;4960889;28;20212;-67
2022/07/04 02:24:46;;;;;;;9.38;2.38;;;;;;;19.05;88.20;100409.00;4968681;28;20680;-65
2022/07/04 02:27:15;;;;;;;11.80;3.15;;;;;;;18.96;88.49;100405.69;4933995;28;20205;-67
2022/07/04 02:29:43;;;;;;;11.45;2.90;;;18.70;99.90;;;19.03;88.57;100424.25;4951524;28;20256;-67
2022/07/04 02:32:11;;;;;;;7.85;1.95;;;;;;;18.95;88.93;100425.38;4984850;28;20212;-66
2022/07/04 02:34:39;;;;;;;11.80;3.05;;;18.50;99.90;;;18.93;90.14;100438.81;4927293;28;20208;-67
2022/07/04 02:37:08;;;;;;;11.48;3.08;;;;;;;18.76;90.00;100431.19;4953840;28;20208;-67
2022/07/04 02:39:35;;;;;;;10.75;2.65;;;18.60;99.90;;;18.69;91.44;100450.13;4971491;28;20234;-66
2022/07/04 02:42:04;;;;;;;8.20;2.28;;;18.60;99.90;;;18.69;92.18;100460.84;4961884;28;20209;-66
2022/07/04 02:44:32;;;;;;;7.88;2.17;;;;;;;18.56;93.03;100468.25;4975664;28;20688;-66
2022/07/04 02:47:00;;;;;;;9.05;2.40;;;18.40;99.90;;;18.44;93.73;100479.25;4958705;28;20213;-66
2022/07/04 02:49:28;;;;;;;4.60;1.33;;;18.40;99.90;;;18.57;93.82;100512.88;4963212;28;20232;-66
2022/07/04 02:51:56;;;;;;;9.18;2.47;;;18.30;99.90;;;18.42;93.55;100507.84;4949930;28;20213;-66
2022/07/04 02:54:24;;;;;;;9.10;2.30;;;;;;;18.37;93.88;100509.75;4946239;28;20568;-66
2022/07/04 02:56:52;;;;;;;10.50;2.50;;;18.40;99.90;;;18.39;94.70;100524.88;4961040;28;20234;-66
2022/07/04 02:59:21;;;;;;;9.32;2.30;;;;;;;18.36;95.32;100538.31;4957660;28;20227;-68
2022/07/04 03:01:49;;;;;;;9.38;2.42;;;;;;;18.33;94.19;100535.72;4979889;28;20223;-67
2022/07/04 03:04:17;;;;;;;9.25;2.28;;;;;;;18.21;95.52;100552.91;4960414;28;20197;-65
2022/07/04 03:06:46;;;;;;;9.45;2.33;;;;;;;18.14;96.20;100556.59;4959801;28;20205;-66
2022/07/04 03:09:14;;;;;;;10.82;2.88;;;18.10;99.90;;;18.20;96.00;100572.56;4961608;28;20236;-66
2022/07/04 03:11:43;;;;;;;6.95;1.90;;;18.10;99.90;;;18.21;94.77;100573.44;4962753;28;20673;-66
2022/07/04 03:14:11;;;;;;;8.20;2.15;;;17.90;99.90;;;18.15;94.70;100570.84;4944729;28;20225;-65
2022/07/04 03:16:40;;;;;;;9.43;2.25;;;;;;;18.12;96.21;100593.19;4966268;28;20680;-67
2022/07/04 03:19:08;;;;;;;8.35;2.35;;;;;;;18.04;97.48;100611.19;4983900;28;20235;-67
2022/07/04 03:21:36;;;;;;;9.05;2.70;;;;;;;17.94;97.26;100614.06;4996568;28;20220;-66
2022/07/04 03:24:04;;;;;;;7.07;2.03;;;17.80;99.90;;;17.97;96.97;100609.56;4990276;28;20205;-67
2022/07/04 03:26:33;;;;;;;6.32;1.90;;;17.80;99.90;;;17.99;97.37;100623.78;4967900;28;20208;-66
2022/07/04 03:29:02;;;;;;;7.07;2.03;;;17.60;99.90;;;17.88;97.56;100620.41;4959091;28;20226;-66
2022/07/04 03:31:30;;;;;;;8.20;2.05;;;;;;;17.87;97.74;100618.66;4949324;28;20218;-66
2022/07/04 03:33:58;;;;;;;9.75;2.45;;;17.70;99.90;;;17.95;98.66;100639.94;4971981;28;20213;-65
2022/07/04 03:36:26;;;;;;;12.20;2.88;;;17.70;99.90;;;17.99;97.40;100637.16;4974839;28;20208;-66
2022/07/04 03:38:54;;;;;;;4.72;1.70;;;17.70;99.90;;;17.95;98.33;100651.50;4991080;28;20228;-66
2022/07/04 03:41:22;;;;;;;6.85;2.25;;;17.70;99.90;;;18.03;97.66;100657.59;4973453;28;20207;-66
2022/07/04 03:43:50;;;;;;;5.65;2.03;;;;;;;18.00;98.29;100668.38;4975635;28;20215;-66
2022/07/04 03:46:18;;;;;;;7.00;2.03;;;17.70;99.90;;;17.83;98.66;100654.41;4948384;28;20205;-66
2022/07/04 03:48:46;;;;;;;8.00;2.38;;;17.70;99.90;;;17.81;99.71;100664.25;4970806;28;20244;-67
2022/07/04 03:51:14;;;;;;;5.13;1.63;;;17.60;99.90;;;17.80;98.85;100670.50;4951588;28;20209;-66
2022/07/04 03:53:43;;;;;;;7.93;2.20;;;17.60;99.90;;;17.77;98.75;100675.91;4949913;28;20225;-66
2022/07/04 03:56:10;;;;;;;6.45;2.03;;;17.60;99.90;;;17.73;99.54;100676.88;4958788;28;20297;-66
2022/07/04 03:58:39;;;;;;;5.20;1.67;;;;;;;17.79;99.22;100680.31;4977379;28;20226;-66
2022/07/04 04:01:09;;;;;;;7.68;2.40;;;17.60;99.90;;;17.80;99.78;100684.75;4972393;28;20562;-66
2022/07/04 04:06:25;;;;;;;3.30;1.08;;;17.50;99.90;;;17.71;99.73;100692.06;4969631;28;20208;-66
2022/07/04 04:08:53;;;;;;;2.72;1.00;;;17.50;99.90;;;17.78;99.22;100694.59;4947159;28;20696;-66
2022/07/04 04:11:22;;;;;;;7.53;2.50;;;;;;;17.75;100.00;100715.16;4979776;28;20231;-67
2022/07/04 04:13:50;;;;;;;7.70;2.38;;;17.50;99.90;;;17.81;100.00;100713.28;4957844;28;20235;-66
2022/07/04 04:16:18;;;;;;;5.50;1.77;;;17.50;99.90;;;17.71;100.00;100705.44;4965173;28;20684;-66
2022/07/04 04:18:46;;;;;;;4.55;1.60;;;17.50;99.90;;;17.65;99.93;100703.69;4961448;28;20232;-66
2022/07/04 04:21:14;;;;;;;3.20;1.17;;;17.40;99.90;;;17.71;100.00;100721.47;4963896;28;20200;-68
2022/07/04 04:23:42;;;;;;;4.50;1.80;;;17.50;99.90;;;17.78;100.00;100737.41;4974225;28;20200;-66
2022/07/04 04:26:11;;;;;;;6.78;2.03;;;17.40;99.90;;;17.76;100.00;100738.34;4969877;28;20216;-68
2022/07/04 04:28:39;;;;;;;9.85;3.00;;;;;;;17.72;100.00;100741.97;4980483;28;20231;-66
2022/07/04 04:31:07;;;;;;;6.78;2.05;;;17.50;99.90;;;17.76;100.00;100762.41;4959834;28;20219;-66
2022/07/04 04:33:35;;;;;;;6.53;2.05;;;17.50;99.90;;;17.79;100.00;100778.41;4945325;28;20230;-65
2022/07/04 04:36:04;;;;;;;3.35;1.00;;;17.50;99.90;;;17.80;100.00;100773.03;4965367;28;20215;-66
2022/07/04 04:38:32;;;;;;;8.82;2.22;;;17.50;99.90;;;17.79;100.00;100776.63;4990294;28;20247;-66
2022/07/04 04:41:00;;;;;;;6.93;2.03;;;;;;;17.82;100.00;100781.94;4971415;28;20236;-69
2022/07/04 04:43:28;;;;;;;6.30;1.90;;;17.50;99.90;;;17.93;100.00;100784.44;4974802;28;20209;-67
2022/07/04 04:45:56;;;;;;;7.53;2.10;;;17.50;99.90;;;17.97;100.00;100802.22;4974973;28;20200;-66
2022/07/04 04:48:25;;;;;;;6.00;1.90;;;;;;;18.03;99.92;100802.13;4987970;28;20723;-66
2022/07/04 04:50:52;;;;;;;6.97;2.15;;;17.60;99.90;;;18.02;99.42;100800.34;4959769;28;20207;-66
2022/07/04 04:53:25;;;;;;;4.78;1.38;;;17.60;99.90;;;18.10;98.69;100798.44;4976466;28;20691;-66
2022/07/04 04:55:54;;;;;;;6.22;2.13;;;17.70;99.90;;;18.17;98.24;100800.09;4977051;28;20631;-65
2022/07/04 04:58:22;;;;;;;3.78;1.38;;;17.70;99.90;;;18.27;98.44;100819.63;4969925;28;20236;-66
2022/07/04 05:00:51;;;;;;;4.93;1.95;;;17.70;99.90;;;18.34;97.62;100823.97;4966565;28;20213;-67
2022/07/04 05:03:38;;;;;;;4.55;1.60;;;17.80;99.90;;;18.44;96.84;100819.34;4948487;28;20683;-68
2022/07/04 05:06:07;;;;;;;4.85;1.58;;;17.90;99.90;;;18.52;97.03;100830.81;4992086;28;20204;-68
2022/07/04 05:08:35;;;;;;;5.18;1.73;;;18.10;99.90;;;18.58;96.69;100836.06;4945914;28;20225;-67
2022/07/04 05:11:03;;;;;;;5.88;1.75;;;18.10;99.90;;;18.62;96.55;100831.56;4958458;28;20208;-67
2022/07/04 05:13:32;;;;;;;7.78;2.35;;;18.10;99.90;;;18.74;96.20;100839.38;4986480;28;20215;-69
2022/07/04 05:16:00;;;;;;;4.32;1.40;;;18.20;99.90;;;18.81;95.95;100843.72;4986897;28;20216;-67
2022/07/04 05:18:28;;;;;;;6.53;1.80;;;;;;;18.82;95.42;100838.31;4950885;28;20321;-66
2022/07/04 05:20:56;;;;;;;5.20;1.63;;;18.40;99.90;;;18.87;94.93;100832.88;4939182;28;20213;-67
2022/07/04 05:23:24;;;;;;;6.50;1.85;;;;;;;18.96;95.05;100847.91;4954166;28;20213;-69
2022/07/04 05:25:53;;;;;;;7.78;2.08;;;;;;;19.09;93.91;100844.06;4973786;28;20208;-67
2022/07/04 05:28:20;;;;;;;8.35;2.20;;;18.50;99.90;;;19.19;92.27;100833.13;5006516;28;20715;-67
2022/07/04 05:30:49;;;;;;;9.13;2.45;;;;;;;19.30;92.25;100840.97;4955273;28;20213;-67
2022/07/04 05:33:17;;;;;;;6.47;1.95;;;18.70;99.90;;;19.37;91.91;100829.19;4975055;28;20216;-66
2022/07/04 05:35:45;;;;;;;3.30;1.05;;;18.70;99.90;;;19.40;91.98;100834.50;4976557;28;20227;-67
2022/07/04 05:38:13;;;;;;;7.88;2.35;;;18.80;99.90;;;19.43;90.22;100815.66;4957335;28;20224;-65
2022/07/04 05:40:41;;;;;;;5.53;1.70;;;19.00;99.90;;;19.50;90.76;100813.72;4989760;28;20227;-66
2022/07/04 05:43:11;;;;;;;6.72;1.83;;;18.90;99.90;;;19.62;90.53;100831.44;4973152;28;20215;-66
2022/07/04 05:45:40;;;;;;;6.47;1.90;;;;;;;19.74;89.51;100826.66;4972731;28;20223;-69
2022/07/04 05:48:07;;;;;;;5.18;1.60;;;19.30;99.90;;;19.86;89.40;100827.31;4941242;28;20236;-66
2022/07/04 05:50:35;;;;;;;8.30;2.72;;;19.40;99.90;;;20.05;89.83;100842.06;4971724;28;20235;-69
2022/07/04 05:53:03;;;;;;;4.22;1.50;;;19.40;99.90;;;19.99;89.00;100828.78;4948391;28;20220;-66
2022/07/04 05:55:32;;;;;;;5.15;1.63;;;19.40;99.90;;;20.15;88.76;100824.81;4973245;28;20225;-65
2022/07/04 05:58:00;;;;;;;5.18;1.60;;;19.70;99.90;;;20.26;87.86;100824.56;4971357;28;20228;-69
2022/07/04 06:00:29;;;;;;;6.93;1.92;;;;;;;20.11;85.40;100785.53;4956673;28;20212;-67
2022/07/04 06:02:57;;;;;;;7.57;2.35;;;;;;;20.14;84.85;100774.72;4989680;28;20216;-67
2022/07/04 06:05:25;;;;;;;5.88;1.67;;;19.70;99.90;;;20.21;84.34;100765.59;4974334;28;20202;-66
2022/07/04 06:07:53;;;;;;;6.50;1.95;;;19.70;99.90;;;20.18;84.05;100754.03;4953845;28;20224;-66
2022/07/04 06:10:21;;;;;;;14.07;4.30;;;;;;;20.36;84.99;100777.75;4943207;28;20205;-70
2022/07/04 06:12:49;;;;;;;5.72;1.63;;;19.90;99.90;;;20.47;83.81;100756.88;4973382;28;20239;-66
2022/07/04 06:15:17;;;;;;;4.95;1.52;;;20.00;99.90;;;20.45;83.37;100748.88;4972914;28;20216;-67
2022/07/04 06:17:45;;;;;;;6.10;1.88;;;20.00;99.90;;;20.42;82.81;100740.00;4953061;28;20206;-68
2022/07/04 06:20:15;;;;;;;6.18;1.73;;;;;;;20.53;82.91;100751.34;4986762;28;20206;-66
2022/07/04 06:22:46;;;;;;;11.77;2.90;;;20.10;99.90;;;20.61;83.47;100749.34;4995742;28;20653;-66
2022/07/04 06:25:17;;;;;;;5.97;1.80;;;20.10;99.90;;;20.57;85.04;100766.47;4978386;28;20209;-67
2022/07/04 06:27:47;;;;;;;4.93;1.50;;;20.20;99.90;;;20.66;84.97;100771.59;4959874;28;20215;-70
2022/07/04 06:30:16;;;;;;;4.40;1.52;;;20.20;99.90;;;20.74;84.00;100764.22;4968185;28;20204;-66
2022/07/04 06:32:47;;;;;;;4.40;1.35;;;20.40;99.90;;;20.83;83.78;100762.22;4991082;28;20584;-68
2022/07/04 06:35:45;;;;;;;9.20;3.03;;;20.40;99.90;;;20.87;83.36;100764.78;4955241;28;20220;-66
2022/07/04 06:38:16;;;;;;;7.47;2.20;;;20.40;99.90;;;20.86;82.74;100754.97;4968460;28;20229;-69
2022/07/04 06:40:45;;;;;;;3.45;1.27;;;20.40;99.90;;;21.01;84.52;100778.72;4956508;28;20212;-67
2022/07/04 06:43:13;;;;;;;5.70;2.00;;;20.50;99.90;;;21.03;84.09;100757.16;4971639;28;20252;-67
2022/07/04 06:45:41;;;;;;;5.90;1.88;;;20.70;99.90;;;21.00;83.69;100744.69;4935591;28;20206;-68
2022/07/04 06:48:09;;;;;;;7.38;2.30;;;23.00;99.90;;;21.25;83.47;100762.84;4982574;28;20244;-68
2022/07/04 06:50:44;;;;;;;6.00;1.73;;;20.80;99.90;;;21.06;83.73;100739.13;4971099;28;20715;-66
2022/07/04 06:53:12;;;;;;;7.07;2.00;;;20.80;99.90;;;21.08;84.24;100755.22;4954040;28;20248;-67
2022/07/04 06:55:42;;;;;;;5.20;1.63;;;21.00;99.90;;;21.44;84.47;100787.38;4955213;28;20233;-70
2022/07/04 06:58:12;;;;;;;4.10;1.40;;;21.00;99.90;;;21.64;82.83;100771.50;4940709;28;20235;-69
2022/07/04 07:00:41;;;;;;;7.18;2.28;;;21.30;99.90;;;21.64;83.59;100766.13;4942060;28;20211;-67
2022/07/04 07:03:10;;;;;;;8.23;2.15;;;21.40;99.90;;;21.66;83.35;100757.06;4969031;28;20205;-66
2022/07/04 07:05:38;;;;;;;4.90;1.65;;;21.30;99.90;;;21.73;82.44;100752.38;4969073;28;20220;-66
2022/07/04 07:08:26;;;;;;;6.68;2.35;;;21.50;99.90;;;22.02;82.32;100773.88;4969240;28;20701;-66
2022/07/04 07:10:56;;;;;;;8.20;2.40;;;21.60;99.90;;;21.90;81.32;100741.94;4999035;28;20213;-68
2022/07/04 07:13:24;;;;;;;6.28;2.03;;;21.60;99.90;;;21.88;81.68;100737.53;4938953;28;20225;-66
2022/07/04 07:15:52;;;;;;;7.28;2.22;;;21.70;99.90;;;21.80;82.20;100718.94;4987171;28;20246;-66
2022/07/04 07:18:20;;;;;;;8.40;2.17;;;21.90;99.90;;;21.99;82.83;100738.06;4942114;28;20228;-66
2022/07/04 07:20:48;;;;;;;8.80;2.22;;;21.90;99.90;;;22.19;81.81;100735.63;4954461;28;20205;-67
2022/07/04 07:23:16;;;;;;;5.38;1.45;;;21.90;99.90;;;21.79;80.42;100668.72;4959681;28;20669;-66
2022/07/04 07:25:44;;;;;;;9.43;2.80;;;21.80;99.90;;;21.99;81.23;100697.66;4943133;28;20216;-66
2022/07/04 07:28:13;;;;;;;7.07;2.10;;;22.00;99.90;;;22.31;79.83;100700.19;4958304;28;20712;-67
2022/07/04 07:30:41;;;;;;;5.85;1.77;;;;;;;21.98;79.31;100648.31;4972947;28;20221;-68
2022/07/04 07:33:10;;;;;;;8.90;2.47;;;;;;;22.31;80.38;100689.41;4974529;28;20212;-68
2022/07/04 07:35:38;;;;;;;7.07;2.20;;;22.30;99.90;;;22.45;80.48;100702.41;4958859;28;20225;-69
2022/07/04 07:38:06;;;;;;;6.97;2.13;;;22.40;99.90;;;22.30;79.08;100638.28;4942948;28;20723;-67
2022/07/04 07:40:35;;;;;;;4.82;1.60;;;22.30;99.90;;;22.16;78.77;100621.72;4970016;28;20454;-67
2022/07/04 07:43:03;;;;;;;528.90;496.85;;;22.30;99.90;;;22.60;81.96;100696.47;4952302;28;20208;-66
2022/07/04 07:45:31;;;;;;;1016.47;952.00;;;22.40;99.90;;;22.88;79.26;100681.97;4975321;28;20224;-70
2022/07/04 07:47:59;;;;;;;1024.22;959.80;;;22.70;99.90;;;23.24;78.69;100693.19;4953454;28;20596;-70
2022/07/04 07:50:27;;;;;;;1014.38;950.80;;;22.90;99.90;;;22.97;77.85;100647.44;4955871;28;20227;-68
2022/07/04 07:52:55;;;;;;;1031.18;965.90;;;23.10;99.90;;;23.26;77.66;100661.63;4941653;28;20212;-67
2022/07/04 07:55:23;;;;;;;1029.60;965.03;;;23.20;99.90;;;23.17;76.93;100616.13;4958533;28;20235;-71
2022/07/04 07:57:52;;;;;;;1030.30;968.25;;;23.20;99.90;;;22.75;75.13;100553.94;4960589;28;20224;-66
2022/07/04 08:00:21;;;;;;;1032.97;968.42;;;23.10;99.90;;;23.01;73.93;100551.13;4942349;28;20204;-69
2022/07/04 08:05:57;;;;;;;0.00;0.00;;;23.30;99.90;;;22.82;74.57;100497.03;4976427;28;20208;-68
2022/07/04 08:08:25;;;;;;;0.10;0.10;;;23.30;99.90;;;23.18;74.43;100531.53;4939606;28;20233;-67
2022/07/04 08:10:53;;;;;;;0.00;0.00;;;23.60;99.90;;;23.67;75.54;100589.81;4985770;28;20211;-68
2022/07/04 08:13:22;;;;;;;0.00;0.00;;;23.70;99.90;;;23.52;74.76;100558.03;4974344;28;20212;-66
2022/07/04 08:15:50;;;;;;;0.00;0.00;;;23.50;99.90;;;23.11;74.38;100498.53;4949557;28;20228;-66
2022/07/04 08:18:19;;;;;;;0.08;0.08;;;23.50;99.90;;;23.73;74.63;100564.34;4974067;28;20224;-69
2022/07/04 08:20:47;;;;;;;0.00;0.00;;;;;;;23.63;73.70;100527.91;4957659;28;20215;-68
2022/07/04 08:23:30;;;;;;;0.00;0.00;;;23.90;99.90;;;23.78;73.31;100533.50;5005216;28;20218;-66
2022/07/04 08:26:00;;;;;;;0.10;0.10;;;23.80;99.90;;;24.11;74.25;100568.97;4973415;28;20200;-67
2022/07/04 08:28:29;;;;;;;0.00;0.00;;;24.20;99.90;;;23.94;72.06;100496.78;4973118;28;20232;-66
2022/07/04 08:30:58;;;;;;;0.00;0.00;;;24.40;99.90;;;23.85;72.92;100491.78;4957441;28;20576;-67
2022/07/04 08:33:26;;;;;;;0.00;0.00;;;24.00;99.90;;;23.94;74.27;100523.78;4956950;28;20212;-66
2022/07/04 08:35:58;;;;;;;0.00;0.00;;;24.30;99.90;;;24.18;71.20;100496.59;4974064;28;20228;-70
2022/07/04 08:38:26;;;;;;;0.00;0.00;;;25.00;99.90;;;25.18;71.36;100577.53;4972974;28;20234;-67
2022/07/04 08:40:58;;;;;;;0.00;0.00;;;26.10;99.90;;;26.64;68.31;100561.81;4959224;28;20207;-67
2022/07/04 08:43:26;;;;;;;0.00;0.00;;;26.10;99.90;;;25.00;68.68;100357.44;4970130;28;20203;-67
2022/07/04 08:45:56;;;;;;;0.13;0.13;;;26.40;99.90;;;24.80;71.69;100379.22;4944132;28;20212;-67
2022/07/04 08:48:52;;;;;;;0.00;0.00;;;26.70;99.90;;;25.94;70.40;100481.56;4947717;28;20708;-67
2022/07/04 08:51:39;;;;;;;0.00;0.00;;;27.00;99.90;;;25.33;68.42;100376.47;4942372;28;20215;-69
2022/07/04 08:59:48;;;;;;;0.00;0.00;;;26.60;99.90;;;25.46;67.00;100339.66;4999098;28;20236;-72
2022/07/04 09:02:18;;;;;;;0.00;0.00;;;27.00;99.90;;;25.34;69.23;100340.31;4944213;28;20582;-70
2022/07/04 09:04:50;;;;;;;0.10;0.10;;;26.20;99.90;;;25.32;67.37;100312.44;4958552;28;20200;-70
2022/07/04 09:07:18;;;;;;;0.00;0.00;;;26.00;99.90;;;25.03;68.21;100275.25;4953996;28;20235;-67
2022/07/04 09:09:46;;;;;;;0.93;0.93;;;26.10;99.90;;;25.10;66.86;100260.44;4973260;28;20728;-67
2022/07/04 09:12:19;;;;;;;0.00;0.00;;;26.40;99.90;;;25.32;66.99;100265.56;4977208;28;20211;-67
2022/07/04 09:14:47;;;;;;;0.00;0.00;;;26.60;99.90;;;25.90;68.67;100340.91;4991441;28;20219;-67
2022/07/04 09:17:15;;;;;;;0.00;0.00;;;26.70;99.90;;;25.76;67.19;100296.50;4951117;28;20242;-67
2022/07/04 09:19:43;;;;;;;0.00;0.00;;;26.80;99.90;;;25.42;67.79;100255.97;4968648;28;20235;-68
2022/07/04 09:22:12;;;;;;;0.00;0.00;;;26.30;99.90;;;26.39;68.42;100375.19;4953522;28;20205;-67
2022/07/04 09:24:54;;;;;;;0.00;0.00;;;26.50;99.90;;;25.89;64.69;100212.69;4974441;28;20702;-67
2022/07/04 09:27:33;;;;;;;0.00;0.00;;;27.30;99.90;;;25.83;67.49;100251.84;4943672;28;20208;-69
2022/07/04 09:30:06;;;;;;;0.00;0.00;;;26.90;99.90;;;25.90;66.42;100214.44;4965849;28;20668;-67
2022/07/04 09:32:42;;;;;;;0.00;0.00;;;27.00;99.90;;;26.82;65.18;100293.13;4966211;28;20220;-67
2022/07/04 09:35:20;;;;;;;0.00;0.00;;;27.60;99.90;;;26.64;63.94;100209.19;4970658;28;20296;-66
2022/07/04 09:38:00;;;;;;;0.00;0.00;;;28.20;99.90;;;26.31;64.44;100173.22;4966015;28;20827;-66
2022/07/04 09:40:31;;;;;;;0.00;0.00;;;27.50;99.90;;;27.03;64.94;100256.56;4987284;28;20235;-66
2022/07/04 09:43:01;;;;;;;0.00;0.00;;;27.90;99.90;;;26.61;64.35;100174.13;4953735;28;20576;-66
2022/07/04 09:45:29;;;;;;;0.00;0.00;;;27.70;99.90;;;26.02;63.54;100081.00;4956051;28;20207;-66
2022/07/04 09:47:58;;;;;;;0.00;0.00;;;27.10;99.90;;;26.81;64.33;100180.16;4987907;28;20228;-66
2022/07/04 09:50:28;;;;;;;0.00;0.00;;;27.10;99.90;;;26.57;64.16;100139.13;4938972;28;20216;-66
2022/07/04 09:53:02;;;;;;;0.00;0.00;;;27.30;99.90;;;27.56;63.66;100227.91;4988026;28;20204;-66
2022/07/04 09:55:40;;;;;;;0.00;0.00;;;28.10;99.90;;;27.14;64.10;100180.78;4940525;28;20223;-66
2022/07/04 09:58:13;;;;;;;0.00;0.00;;;28.00;99.90;;;27.09;63.11;100155.75;4935277;28;20236;-67
2022/07/04 10:00:44;;;;;;;0.00;0.00;;;28.10;99.90;;;26.92;63.16;100128.78;4970131;28;20204;-66
2022/07/04 10:03:25;;;;;;;0.00;0.00;;;28.10;99.90;;;26.48;62.15;100028.53;4952057;28;20208;-66
2022/07/04 10:06:06;;;;;;;0.00;0.00;;;27.90;99.90;;;27.55;64.38;100193.56;5000048;28;20204;-66
2022/07/04 10:08:35;;;;;;;0.00;0.00;;;28.20;99.90;;;27.23;63.51;100115.03;4984114;28;20229;-66
2022/07/04 10:11:05;;;;;;;0.00;0.00;;;28.90;99.90;;;27.78;62.84;100157.63;4987166;28;20208;-66
2022/07/04 10:13:38;;;;;;;0.00;0.00;;;30.00;99.90;;;27.59;63.66;100136.22;4969828;28;20204;-67
2022/07/04 10:16:09;;;;;;;0.00;0.00;;;29.70;99.90;;;27.14;63.20;100052.31;4956108;28;20204;-67
2022/07/04 10:18:37;;;;;;;0.00;0.00;;;28.90;99.90;;;26.48;64.37;99980.59;4926783;28;20231;-67
2022/07/04 10:21:05;;;;;;;0.00;0.00;;;28.00;99.90;;;27.38;63.68;100099.59;4965402;28;20208;-66
2022/07/04 10:23:36;;;;;;;0.00;0.00;;;28.10;99.90;;;27.47;62.26;100079.13;4971398;28;20207;-66
2022/07/04 10:26:04;;;;;;;0.00;0.00;;;28.40;99.90;;;27.28;62.81;100034.16;4971018;28;20670;-66
2022/07/04 10:28:32;;;;;;;0.00;0.00;;;29.00;99.90;;;26.71;63.05;99974.56;4961314;28;20223;-65
2022/07/04 10:31:01;;;;;;;0.00;0.00;;;28.10;99.90;;;27.91;61.05;100076.16;4980420;28;20205;-67
2022/07/04 10:33:30;;;;;;;0.00;0.00;;;29.00;99.90;;;29.22;60.06;100132.22;4934993;28;20207;-67
2022/07/04 10:36:04;;;;;;;0.00;0.00;;;30.70;99.90;;;28.26;63.78;100055.59;4937850;28;20323;-67
2022/07/04 10:38:58;;;;;;;0.00;0.00;;;30.90;99.90;;;28.50;61.38;100057.53;4962955;28;20234;-66
2022/07/04 10:41:29;;;;;;;0.00;0.00;;;31.20;99.90;;;27.56;60.66;99924.56;4956796;28;20208;-66
2022/07/04 10:44:09;;;;;;;0.00;0.00;;;30.20;99.30;;;28.25;60.60;100004.91;4983244;28;20201;-67
2022/07/04 10:46:50;;;;;;;0.10;0.10;;;30.30;99.60;;;29.47;56.80;100025.06;4930002;28;20208;-66
2022/07/04 10:49:21;;;;;;;0.00;0.00;;;31.60;98.70;;;29.44;60.85;100071.59;4947847;28;20234;-66
2022/07/04 10:52:12;;;;;;;0.00;0.00;;;32.10;99.90;;;30.30;59.71;100118.63;4965557;28;20207;-65